sensor_id;sensor_type;location;lat;lon;timestamp;P1;durP1;ratioP1;P2;durP2;ratioP2
49978;SDS011;35869;50.990;6.962;2023-01-01T00:01:59;26.17;;;18.30;;
49978;SDS011;35869;50.990;6.962;2023-01-01T00:06:59;30.75;;;20.58;;
49978;SDS011;35869;50.990;6.962;2023-01-01T00:17:00;19.35;;;14.18;;
49978;SDS011;35869;50.990;6.962;2023-01-01T00:27:01;16.23;;;10.38;;
49978;SDS011;35869;50.990;6.962;2023-01-01T00:32:01;16.58;;;10.75;;
49978;SDS011;35869;50.990;6.962;2023-01-01T00:37:01;12.43;;;8.65;;
49978;SDS011;35869;50.990;6.962;2023-01-01T00:42:01;14.10;;;8.35;;
49978;SDS011;35869;50.990;6.962;2023-01-01T00:52:02;11.53;;;5.43;;
49978;SDS011;35869;50.990;6.962;2023-01-01T01:02:03;5.90;;;3.92;;
49978;SDS011;35869;50.990;6.962;2023-01-01T01:07:03;4.65;;;3.13;;
49978;SDS011;35869;50.990;6.962;2023-01-01T01:12:03;8.48;;;2.67;;
49978;SDS011;35869;50.990;6.962;2023-01-01T01:22:03;3.05;;;2.20;;
49978;SDS011;35869;50.990;6.962;2023-01-01T01:27:04;4.07;;;2.47;;
49978;SDS011;35869;50.990;6.962;2023-01-01T01:32:04;2.42;;;1.95;;
49978;SDS011;35869;50.990;6.962;2023-01-01T01:37:04;8.60;;;2.30;;
49978;SDS011;35869;50.990;6.962;2023-01-01T01:42:05;3.75;;;2.05;;
49978;SDS011;35869;50.990;6.962;2023-01-01T01:47:06;5.68;;;1.80;;
49978;SDS011;35869;50.990;6.962;2023-01-01T01:52:13;5.10;;;2.22;;
49978;SDS011;35869;50.990;6.962;2023-01-01T01:57:13;3.15;;;1.23;;
49978;SDS011;35869;50.990;6.962;2023-01-01T02:07:21;3.50;;;1.65;;
49978;SDS011;35869;50.990;6.962;2023-01-01T02:12:25;2.67;;;1.58;;
49978;SDS011;35869;50.990;6.962;2023-01-01T02:17:33;2.28;;;1.38;;
49978;SDS011;35869;50.990;6.962;2023-01-01T02:28:09;3.22;;;1.58;;
49978;SDS011;35869;50.990;6.962;2023-01-01T02:38:25;2.78;;;1.30;;
49978;SDS011;35869;50.990;6.962;2023-01-01T02:43:29;3.03;;;1.40;;
49978;SDS011;35869;50.990;6.962;2023-01-01T02:49:03;4.05;;;1.83;;
49978;SDS011;35869;50.990;6.962;2023-01-01T03:10:16;2.30;;;1.40;;
49978;SDS011;35869;50.990;6.962;2023-01-01T03:15:30;2.35;;;1.10;;
49978;SDS011;35869;50.990;6.962;2023-01-01T03:20:40;3.45;;;1.23;;
49978;SDS011;35869;50.990;6.962;2023-01-01T03:25:45;7.25;;;1.85;;
49978;SDS011;35869;50.990;6.962;2023-01-01T03:30:49;3.25;;;1.30;;
49978;SDS011;35869;50.990;6.962;2023-01-01T03:36:10;1.98;;;1.10;;
49978;SDS011;35869;50.990;6.962;2023-01-01T03:41:25;3.67;;;1.13;;
49978;SDS011;35869;50.990;6.962;2023-01-01T03:46:32;4.13;;;1.35;;
49978;SDS011;35869;50.990;6.962;2023-01-01T03:51:39;1.77;;;1.17;;
49978;SDS011;35869;50.990;6.962;2023-01-01T04:02:01;10.18;;;1.35;;
49978;SDS011;35869;50.990;6.962;2023-01-01T04:07:05;2.17;;;1.23;;
49978;SDS011;35869;50.990;6.962;2023-01-01T04:12:07;3.83;;;1.57;;
49978;SDS011;35869;50.990;6.962;2023-01-01T04:17:10;4.03;;;1.10;;
49978;SDS011;35869;50.990;6.962;2023-01-01T04:22:11;3.92;;;1.35;;
49978;SDS011;35869;50.990;6.962;2023-01-01T04:27:11;3.75;;;1.60;;
49978;SDS011;35869;50.990;6.962;2023-01-01T04:32:11;3.50;;;1.40;;
49978;SDS011;35869;50.990;6.962;2023-01-01T04:37:11;2.08;;;0.98;;
49978;SDS011;35869;50.990;6.962;2023-01-01T04:42:12;2.90;;;1.80;;
49978;SDS011;35869;50.990;6.962;2023-01-01T04:52:12;1.77;;;1.48;;
49978;SDS011;35869;50.990;6.962;2023-01-01T04:57:12;3.30;;;1.60;;
49978;SDS011;35869;50.990;6.962;2023-01-01T05:02:13;4.45;;;2.00;;
49978;SDS011;35869;50.990;6.962;2023-01-01T05:07:13;6.13;;;1.85;;
49978;SDS011;35869;50.990;6.962;2023-01-01T05:12:13;2.92;;;1.10;;
49978;SDS011;35869;50.990;6.962;2023-01-01T05:17:14;6.93;;;1.55;;
49978;SDS011;35869;50.990;6.962;2023-01-01T05:22:14;1.63;;;1.13;;
49978;SDS011;35869;50.990;6.962;2023-01-01T05:27:14;3.05;;;1.70;;
49978;SDS011;35869;50.990;6.962;2023-01-01T05:32:14;3.47;;;1.48;;
49978;SDS011;35869;50.990;6.962;2023-01-01T05:37:14;10.77;;;1.98;;
49978;SDS011;35869;50.990;6.962;2023-01-01T05:42:15;4.32;;;1.83;;
49978;SDS011;35869;50.990;6.962;2023-01-01T05:47:15;3.33;;;1.50;;
49978;SDS011;35869;50.990;6.962;2023-01-01T05:52:15;5.40;;;1.80;;
49978;SDS011;35869;50.990;6.962;2023-01-01T05:57:15;4.97;;;1.45;;
49978;SDS011;35869;50.990;6.962;2023-01-01T06:02:15;4.60;;;1.70;;
49978;SDS011;35869;50.990;6.962;2023-01-01T06:07:16;4.22;;;1.75;;
49978;SDS011;35869;50.990;6.962;2023-01-01T06:12:16;3.40;;;1.83;;
49978;SDS011;35869;50.990;6.962;2023-01-01T06:17:16;4.40;;;1.67;;
49978;SDS011;35869;50.990;6.962;2023-01-01T06:22:16;4.80;;;1.17;;
49978;SDS011;35869;50.990;6.962;2023-01-01T06:27:17;3.53;;;1.50;;
49978;SDS011;35869;50.990;6.962;2023-01-01T06:32:20;2.88;;;1.35;;
49978;SDS011;35869;50.990;6.962;2023-01-01T06:37:20;3.95;;;1.65;;
49978;SDS011;35869;50.990;6.962;2023-01-01T06:42:20;3.03;;;1.65;;
49978;SDS011;35869;50.990;6.962;2023-01-01T06:47:21;4.00;;;1.70;;
49978;SDS011;35869;50.990;6.962;2023-01-01T06:52:21;1.80;;;1.15;;
49978;SDS011;35869;50.990;6.962;2023-01-01T06:57:22;3.97;;;1.48;;
49978;SDS011;35869;50.990;6.962;2023-01-01T07:02:23;4.22;;;1.63;;
49978;SDS011;35869;50.990;6.962;2023-01-01T07:07:23;6.70;;;2.00;;
49978;SDS011;35869;50.990;6.962;2023-01-01T07:12:23;2.90;;;1.60;;
49978;SDS011;35869;50.990;6.962;2023-01-01T07:17:23;3.95;;;1.77;;
49978;SDS011;35869;50.990;6.962;2023-01-01T07:22:24;5.32;;;1.50;;
49978;SDS011;35869;50.990;6.962;2023-01-01T07:27:24;2.60;;;1.50;;
49978;SDS011;35869;50.990;6.962;2023-01-01T07:32:24;3.63;;;2.00;;
49978;SDS011;35869;50.990;6.962;2023-01-01T07:37:24;4.80;;;1.83;;
49978;SDS011;35869;50.990;6.962;2023-01-01T07:42:24;4.80;;;1.50;;
49978;SDS011;35869;50.990;6.962;2023-01-01T07:47:25;5.68;;;2.10;;
49978;SDS011;35869;50.990;6.962;2023-01-01T07:52:25;3.15;;;2.03;;
49978;SDS011;35869;50.990;6.962;2023-01-01T07:57:26;3.42;;;1.75;;
49978;SDS011;35869;50.990;6.962;2023-01-01T08:02:26;4.88;;;1.70;;
49978;SDS011;35869;50.990;6.962;2023-01-01T08:12:28;2.47;;;1.52;;
49978;SDS011;35869;50.990;6.962;2023-01-01T08:17:29;2.17;;;1.50;;
49978;SDS011;35869;50.990;6.962;2023-01-01T08:22:29;3.90;;;1.70;;
49978;SDS011;35869;50.990;6.962;2023-01-01T08:32:38;3.90;;;1.48;;
49978;SDS011;35869;50.990;6.962;2023-01-01T08:37:42;3.22;;;1.58;;
49978;SDS011;35869;50.990;6.962;2023-01-01T08:42:55;7.63;;;1.67;;
49978;SDS011;35869;50.990;6.962;2023-01-01T08:47:56;4.10;;;1.40;;
49978;SDS011;35869;50.990;6.962;2023-01-01T08:52:56;3.78;;;1.67;;
49978;SDS011;35869;50.990;6.962;2023-01-01T08:57:58;5.40;;;1.90;;
49978;SDS011;35869;50.990;6.962;2023-01-01T09:02:58;2.58;;;1.50;;
49978;SDS011;35869;50.990;6.962;2023-01-01T09:07:58;6.10;;;2.17;;
49978;SDS011;35869;50.990;6.962;2023-01-01T09:12:58;4.53;;;1.80;;
49978;SDS011;35869;50.990;6.962;2023-01-01T09:17:59;5.93;;;1.77;;
49978;SDS011;35869;50.990;6.962;2023-01-01T09:22:59;6.05;;;1.70;;
49978;SDS011;35869;50.990;6.962;2023-01-01T09:28:00;3.10;;;1.63;;
49978;SDS011;35869;50.990;6.962;2023-01-01T09:33:02;8.27;;;1.70;;
49978;SDS011;35869;50.990;6.962;2023-01-01T09:38:02;3.55;;;1.58;;
49978;SDS011;35869;50.990;6.962;2023-01-01T09:48:28;4.80;;;1.77;;
49978;SDS011;35869;50.990;6.962;2023-01-01T09:53:31;4.22;;;1.83;;
49978;SDS011;35869;50.990;6.962;2023-01-01T10:03:48;4.45;;;1.88;;
49978;SDS011;35869;50.990;6.962;2023-01-01T10:14:32;3.25;;;1.70;;
49978;SDS011;35869;50.990;6.962;2023-01-01T10:19:40;4.72;;;1.70;;
49978;SDS011;35869;50.990;6.962;2023-01-01T10:40:03;7.13;;;1.53;;
49978;SDS011;35869;50.990;6.962;2023-01-01T10:45:48;3.60;;;1.70;;
49978;SDS011;35869;50.990;6.962;2023-01-01T10:50:50;3.33;;;1.77;;
49978;SDS011;35869;50.990;6.962;2023-01-01T10:56:00;3.65;;;1.48;;
49978;SDS011;35869;50.990;6.962;2023-01-01T11:01:18;4.35;;;2.20;;
49978;SDS011;35869;50.990;6.962;2023-01-01T11:06:38;6.47;;;1.77;;
49978;SDS011;35869;50.990;6.962;2023-01-01T11:11:47;3.25;;;1.60;;
49978;SDS011;35869;50.990;6.962;2023-01-01T11:16:54;4.80;;;1.92;;
49978;SDS011;35869;50.990;6.962;2023-01-01T11:21:56;3.42;;;1.73;;
49978;SDS011;35869;50.990;6.962;2023-01-01T11:27:11;6.28;;;2.28;;
49978;SDS011;35869;50.990;6.962;2023-01-01T11:32:15;3.38;;;1.60;;
49978;SDS011;35869;50.990;6.962;2023-01-01T11:42:28;5.65;;;1.85;;
49978;SDS011;35869;50.990;6.962;2023-01-01T11:52:34;5.00;;;1.80;;
49978;SDS011;35869;50.990;6.962;2023-01-01T11:57:37;4.03;;;1.75;;
49978;SDS011;35869;50.990;6.962;2023-01-01T12:03:41;2.30;;;1.50;;
49978;SDS011;35869;50.990;6.962;2023-01-01T12:08:34;4.53;;;1.60;;
49978;SDS011;35869;50.990;6.962;2023-01-01T12:13:43;3.30;;;1.85;;
49978;SDS011;35869;50.990;6.962;2023-01-01T12:24:07;5.65;;;1.88;;
49978;SDS011;35869;50.990;6.962;2023-01-01T12:45:27;4.63;;;1.85;;
49978;SDS011;35869;50.990;6.962;2023-01-01T12:50:58;4.97;;;1.92;;
49978;SDS011;35869;50.990;6.962;2023-01-01T13:01:30;3.63;;;1.60;;
49978;SDS011;35869;50.990;6.962;2023-01-01T13:11:39;3.97;;;1.70;;
49978;SDS011;35869;50.990;6.962;2023-01-01T13:16:52;3.55;;;1.80;;
49978;SDS011;35869;50.990;6.962;2023-01-01T13:21:54;4.80;;;2.28;;
49978;SDS011;35869;50.990;6.962;2023-01-01T13:26:54;5.75;;;2.28;;
49978;SDS011;35869;50.990;6.962;2023-01-01T13:32:01;5.68;;;2.35;;
49978;SDS011;35869;50.990;6.962;2023-01-01T13:42:36;5.07;;;2.33;;
49978;SDS011;35869;50.990;6.962;2023-01-01T14:10:16;3.38;;;1.80;;
49978;SDS011;35869;50.990;6.962;2023-01-01T14:20:25;2.75;;;1.52;;
49978;SDS011;35869;50.990;6.962;2023-01-01T14:25:30;3.95;;;1.73;;
49978;SDS011;35869;50.990;6.962;2023-01-01T14:30:31;5.03;;;1.98;;
49978;SDS011;35869;50.990;6.962;2023-01-01T14:35:32;4.13;;;1.65;;
49978;SDS011;35869;50.990;6.962;2023-01-01T14:40:32;4.55;;;1.90;;
49978;SDS011;35869;50.990;6.962;2023-01-01T14:45:33;4.63;;;1.85;;
49978;SDS011;35869;50.990;6.962;2023-01-01T14:50:35;2.58;;;1.40;;
49978;SDS011;35869;50.990;6.962;2023-01-01T14:55:38;3.75;;;1.50;;
49978;SDS011;35869;50.990;6.962;2023-01-01T15:00:41;5.57;;;1.50;;
49978;SDS011;35869;50.990;6.962;2023-01-01T15:05:42;2.20;;;1.50;;
49978;SDS011;35869;50.990;6.962;2023-01-01T15:10:44;3.40;;;1.23;;
49978;SDS011;35869;50.990;6.962;2023-01-01T15:15:46;1.70;;;1.23;;
49978;SDS011;35869;50.990;6.962;2023-01-01T15:20:51;2.13;;;1.17;;
49978;SDS011;35869;50.990;6.962;2023-01-01T15:25:53;2.35;;;1.02;;
49978;SDS011;35869;50.990;6.962;2023-01-01T15:30:54;3.35;;;1.10;;
49978;SDS011;35869;50.990;6.962;2023-01-01T15:35:55;2.53;;;1.13;;
49978;SDS011;35869;50.990;6.962;2023-01-01T15:40:56;2.20;;;1.00;;
49978;SDS011;35869;50.990;6.962;2023-01-01T15:51:05;1.85;;;1.20;;
49978;SDS011;35869;50.990;6.962;2023-01-01T15:56:12;5.57;;;1.92;;
49978;SDS011;35869;50.990;6.962;2023-01-01T16:01:17;5.03;;;1.63;;
49978;SDS011;35869;50.990;6.962;2023-01-01T16:06:20;4.40;;;1.65;;
49978;SDS011;35869;50.990;6.962;2023-01-01T16:11:21;5.22;;;1.60;;
49978;SDS011;35869;50.990;6.962;2023-01-01T16:16:25;3.47;;;2.42;;
49978;SDS011;35869;50.990;6.962;2023-01-01T16:21:27;4.88;;;2.60;;
49978;SDS011;35869;50.990;6.962;2023-01-01T16:26:29;7.10;;;5.00;;
49978;SDS011;35869;50.990;6.962;2023-01-01T16:31:30;6.68;;;3.38;;
49978;SDS011;35869;50.990;6.962;2023-01-01T16:36:30;3.10;;;2.20;;
49978;SDS011;35869;50.990;6.962;2023-01-01T16:41:30;3.63;;;2.50;;
49978;SDS011;35869;50.990;6.962;2023-01-01T16:51:31;4.43;;;3.38;;
49978;SDS011;35869;50.990;6.962;2023-01-01T16:56:32;5.70;;;3.58;;
49978;SDS011;35869;50.990;6.962;2023-01-01T17:01:32;6.47;;;3.72;;
49978;SDS011;35869;50.990;6.962;2023-01-01T17:11:33;9.60;;;5.50;;
49978;SDS011;35869;50.990;6.962;2023-01-01T17:16:33;12.23;;;6.25;;
49978;SDS011;35869;50.990;6.962;2023-01-01T17:21:33;11.93;;;6.63;;
49978;SDS011;35869;50.990;6.962;2023-01-01T17:26:33;12.98;;;7.32;;
49978;SDS011;35869;50.990;6.962;2023-01-01T17:31:34;13.15;;;8.07;;
49978;SDS011;35869;50.990;6.962;2023-01-01T17:36:34;9.52;;;6.90;;
49978;SDS011;35869;50.990;6.962;2023-01-01T17:41:34;12.43;;;7.10;;
49978;SDS011;35869;50.990;6.962;2023-01-01T17:46:35;10.43;;;7.78;;
49978;SDS011;35869;50.990;6.962;2023-01-01T17:51:35;10.70;;;6.55;;
49978;SDS011;35869;50.990;6.962;2023-01-01T17:56:35;8.02;;;6.03;;
49978;SDS011;35869;50.990;6.962;2023-01-01T18:01:35;10.95;;;6.25;;
49978;SDS011;35869;50.990;6.962;2023-01-01T18:06:37;12.40;;;7.20;;
49978;SDS011;35869;50.990;6.962;2023-01-01T18:11:38;11.90;;;7.82;;
49978;SDS011;35869;50.990;6.962;2023-01-01T18:16:40;10.70;;;7.35;;
49978;SDS011;35869;50.990;6.962;2023-01-01T18:21:42;10.50;;;6.03;;
49978;SDS011;35869;50.990;6.962;2023-01-01T18:26:43;10.18;;;6.18;;
49978;SDS011;35869;50.990;6.962;2023-01-01T18:31:43;9.48;;;5.75;;
49978;SDS011;35869;50.990;6.962;2023-01-01T18:36:43;12.05;;;5.53;;
49978;SDS011;35869;50.990;6.962;2023-01-01T18:52:24;9.70;;;5.78;;
49978;SDS011;35869;50.990;6.962;2023-01-01T18:57:26;11.05;;;5.95;;
49978;SDS011;35869;50.990;6.962;2023-01-01T19:07:29;9.00;;;6.32;;
49978;SDS011;35869;50.990;6.962;2023-01-01T19:12:29;11.77;;;6.53;;
49978;SDS011;35869;50.990;6.962;2023-01-01T19:17:30;11.10;;;6.35;;
49978;SDS011;35869;50.990;6.962;2023-01-01T19:22:30;11.63;;;7.22;;
49978;SDS011;35869;50.990;6.962;2023-01-01T19:27:32;16.80;;;8.88;;
49978;SDS011;35869;50.990;6.962;2023-01-01T19:32:33;13.27;;;10.15;;
49978;SDS011;35869;50.990;6.962;2023-01-01T19:37:33;15.80;;;11.68;;
49978;SDS011;35869;50.990;6.962;2023-01-01T19:42:33;16.25;;;11.40;;
49978;SDS011;35869;50.990;6.962;2023-01-01T19:47:34;32.35;;;21.38;;
49978;SDS011;35869;50.990;6.962;2023-01-01T19:52:36;32.80;;;21.75;;
49978;SDS011;35869;50.990;6.962;2023-01-01T19:57:36;21.73;;;14.43;;
49978;SDS011;35869;50.990;6.962;2023-01-01T20:02:39;19.23;;;13.82;;
49978;SDS011;35869;50.990;6.962;2023-01-01T20:07:41;15.20;;;8.20;;
49978;SDS011;35869;50.990;6.962;2023-01-01T20:13:11;7.35;;;5.00;;
49978;SDS011;35869;50.990;6.962;2023-01-01T20:18:14;11.40;;;6.50;;
49978;SDS011;35869;50.990;6.962;2023-01-01T20:23:14;12.75;;;5.60;;
49978;SDS011;35869;50.990;6.962;2023-01-01T20:28:15;7.75;;;5.28;;
49978;SDS011;35869;50.990;6.962;2023-01-01T20:33:16;12.85;;;5.68;;
49978;SDS011;35869;50.990;6.962;2023-01-01T20:38:16;16.00;;;5.65;;
49978;SDS011;35869;50.990;6.962;2023-01-01T20:43:16;9.20;;;5.25;;
49978;SDS011;35869;50.990;6.962;2023-01-01T20:48:16;11.25;;;4.75;;
49978;SDS011;35869;50.990;6.962;2023-01-01T20:53:16;9.48;;;5.40;;
49978;SDS011;35869;50.990;6.962;2023-01-01T20:58:17;7.93;;;4.95;;
49978;SDS011;35869;50.990;6.962;2023-01-01T21:03:17;8.82;;;5.47;;
49978;SDS011;35869;50.990;6.962;2023-01-01T21:08:17;13.32;;;5.68;;
49978;SDS011;35869;50.990;6.962;2023-01-01T21:13:17;10.45;;;5.47;;
49978;SDS011;35869;50.990;6.962;2023-01-01T21:18:17;9.90;;;5.30;;
49978;SDS011;35869;50.990;6.962;2023-01-01T21:23:22;10.82;;;5.78;;
49978;SDS011;35869;50.990;6.962;2023-01-01T21:28:25;8.23;;;4.45;;
49978;SDS011;35869;50.990;6.962;2023-01-01T21:33:31;14.45;;;5.25;;
49978;SDS011;35869;50.990;6.962;2023-01-01T21:38:33;9.90;;;5.55;;
49978;SDS011;35869;50.990;6.962;2023-01-01T21:43:37;9.77;;;5.07;;
49978;SDS011;35869;50.990;6.962;2023-01-01T21:48:41;9.00;;;5.45;;
49978;SDS011;35869;50.990;6.962;2023-01-01T21:53:51;9.20;;;5.15;;
49978;SDS011;35869;50.990;6.962;2023-01-01T22:04:17;8.57;;;5.07;;
49978;SDS011;35869;50.990;6.962;2023-01-01T22:14:33;8.40;;;3.87;;
49978;SDS011;35869;50.990;6.962;2023-01-01T22:19:37;7.15;;;3.92;;
49978;SDS011;35869;50.990;6.962;2023-01-01T22:24:37;7.75;;;4.40;;
49978;SDS011;35869;50.990;6.962;2023-01-01T22:29:38;9.70;;;4.67;;
49978;SDS011;35869;50.990;6.962;2023-01-01T22:34:38;9.50;;;4.38;;
49978;SDS011;35869;50.990;6.962;2023-01-01T22:39:38;6.95;;;4.15;;
49978;SDS011;35869;50.990;6.962;2023-01-01T22:44:38;6.80;;;3.75;;
49978;SDS011;35869;50.990;6.962;2023-01-01T22:49:39;6.93;;;3.93;;
49978;SDS011;35869;50.990;6.962;2023-01-01T22:54:41;6.53;;;3.42;;
49978;SDS011;35869;50.990;6.962;2023-01-01T22:59:42;9.90;;;3.92;;
49978;SDS011;35869;50.990;6.962;2023-01-01T23:04:42;8.30;;;3.55;;
49978;SDS011;35869;50.990;6.962;2023-01-01T23:09:42;4.95;;;2.90;;
49978;SDS011;35869;50.990;6.962;2023-01-01T23:14:42;9.20;;;4.07;;
49978;SDS011;35869;50.990;6.962;2023-01-01T23:19:43;7.80;;;3.40;;
49978;SDS011;35869;50.990;6.962;2023-01-01T23:24:43;11.30;;;4.10;;
49978;SDS011;35869;50.990;6.962;2023-01-01T23:29:45;8.90;;;3.60;;
49978;SDS011;35869;50.990;6.962;2023-01-01T23:34:48;6.60;;;3.53;;
49978;SDS011;35869;50.990;6.962;2023-01-01T23:39:48;7.63;;;3.47;;
49978;SDS011;35869;50.990;6.962;2023-01-01T23:44:49;9.07;;;3.40;;
49978;SDS011;35869;50.990;6.962;2023-01-01T23:49:49;6.97;;;3.50;;
49978;SDS011;35869;50.990;6.962;2023-01-01T23:54:49;5.75;;;2.90;;
49978;SDS011;35869;50.990;6.962;2023-01-01T23:59:49;4.85;;;2.85;;
